createdAt,value
2022-08-19T00:01:59.069Z,8.30
2022-08-19T00:04:36.713Z,8.40
2022-08-19T00:07:05.661Z,8.80
2022-08-19T00:09:32.889Z,8.50
2022-08-19T00:12:00.910Z,8.50
2022-08-19T00:14:31.745Z,9.90
2022-08-19T00:16:59.397Z,10.80
2022-08-19T00:19:28.093Z,10.30
2022-08-19T00:21:56.814Z,11.10
2022-08-19T00:24:25.001Z,10.60
2022-08-19T00:26:52.242Z,9.90
2022-08-19T00:29:21.427Z,9.50
2022-08-19T00:31:50.734Z,10.30
2022-08-19T00:34:18.477Z,10.30
2022-08-19T00:36:46.517Z,10.40
2022-08-19T00:39:14.792Z,10.90
2022-08-19T00:41:43.366Z,10.00
2022-08-19T00:44:14.206Z,10.50
2022-08-19T00:46:44.718Z,10.40
2022-08-19T00:49:36.824Z,10.10
2022-08-19T00:52:09.759Z,10.70
2022-08-19T00:54:39.707Z,10.60
2022-08-19T00:57:12.755Z,10.70
2022-08-19T01:00:00.299Z,10.80
2022-08-19T01:02:31.190Z,10.90
2022-08-19T01:05:00.980Z,10.50
2022-08-19T01:07:28.094Z,11.10
2022-08-19T01:10:04.804Z,10.70
2022-08-19T01:12:31.898Z,10.20
2022-08-19T01:15:00.256Z,11.00
2022-08-19T01:17:27.956Z,11.10
2022-08-19T01:19:55.186Z,10.70
2022-08-19T01:22:31.552Z,10.30
2022-08-19T01:25:01.891Z,10.40
2022-08-19T01:27:43.211Z,10.70
2022-08-19T01:30:18.302Z,10.90
2022-08-19T01:32:45.425Z,10.70
2022-08-19T01:35:14.346Z,11.30
2022-08-19T01:37:53.965Z,10.60
2022-08-19T01:40:23.745Z,11.30
2022-08-19T01:45:19.603Z,10.90
2022-08-19T01:47:52.767Z,10.90
2022-08-19T01:50:31.930Z,11.30
2022-08-19T01:55:40.566Z,11.10
2022-08-19T01:58:21.568Z,11.70
2022-08-19T02:00:49.652Z,11.50
2022-08-19T02:03:17.264Z,11.30
2022-08-19T02:05:44.922Z,11.20
2022-08-19T02:08:12.464Z,10.80
2022-08-19T02:10:43.859Z,11.00
2022-08-19T02:13:13.963Z,11.80
2022-08-19T02:15:41.813Z,11.00
2022-08-19T02:18:09.182Z,11.40
2022-08-19T02:20:37.494Z,11.80
2022-08-19T02:23:04.896Z,11.00
2022-08-19T02:25:31.741Z,11.30
2022-08-19T02:27:58.772Z,11.40
2022-08-19T02:30:26.410Z,11.10
2022-08-19T02:32:53.972Z,11.00
2022-08-19T02:35:22.225Z,11.10
2022-08-19T02:38:08.181Z,11.00
2022-08-19T02:40:36.589Z,11.50
2022-08-19T02:43:07.209Z,12.00
2022-08-19T02:45:37.199Z,11.70
2022-08-19T02:48:21.344Z,12.10
2022-08-19T02:50:55.740Z,12.10
2022-08-19T02:53:25.383Z,10.90
2022-08-19T02:58:21.679Z,10.80
2022-08-19T03:00:53.162Z,11.90
2022-08-19T03:03:21.200Z,12.20
2022-08-19T03:05:56.907Z,12.00
2022-08-19T03:08:26.337Z,11.90
2022-08-19T03:10:54.222Z,11.90
2022-08-19T03:13:23.756Z,11.20
2022-08-19T03:18:18.141Z,11.30
2022-08-19T03:20:48.446Z,12.60
2022-08-19T03:23:17.355Z,12.70
2022-08-19T03:26:03.010Z,12.70
2022-08-19T03:28:37.894Z,13.20
2022-08-19T03:31:42.121Z,12.30
2022-08-19T03:33:56.389Z,12.20
2022-08-19T03:36:29.557Z,12.70
2022-08-19T03:39:00.001Z,13.10
2022-08-19T03:41:34.229Z,12.10
2022-08-19T03:44:16.919Z,11.90
2022-08-19T03:46:47.809Z,12.20
2022-08-19T03:51:43.957Z,13.30
2022-08-19T03:54:13.549Z,13.30
2022-08-19T03:56:43.849Z,13.10
2022-08-19T03:59:15.928Z,13.60
2022-08-19T04:01:44.135Z,14.20
2022-08-19T04:04:11.218Z,14.70
2022-08-19T04:06:40.133Z,13.30
2022-08-19T04:09:09.482Z,14.40
2022-08-19T04:14:14.603Z,14.20
2022-08-19T04:16:44.302Z,15.30
2022-08-19T04:19:11.918Z,15.50
2022-08-19T04:21:38.962Z,15.70
2022-08-19T04:24:06.987Z,15.70
2022-08-19T04:26:37.564Z,15.30
2022-08-19T04:29:12.540Z,15.10
2022-08-19T04:31:41.697Z,14.70
2022-08-19T04:34:12.323Z,14.30
2022-08-19T04:36:42.163Z,15.30
2022-08-19T04:39:12.669Z,16.30
2022-08-19T04:41:58.073Z,14.90
2022-08-19T04:44:26.150Z,15.90
2022-08-19T04:46:53.683Z,15.90
2022-08-19T04:49:22.752Z,16.40
2022-08-19T04:51:54.776Z,17.10
2022-08-19T04:54:38.230Z,17.40
2022-08-19T04:57:10.175Z,17.60
2022-08-19T04:59:38.504Z,16.90
2022-08-19T05:02:09.070Z,17.20
2022-08-19T05:04:39.577Z,16.30
2022-08-19T05:07:08.423Z,17.20
2022-08-19T05:09:58.441Z,16.50
2022-08-19T05:12:22.627Z,16.30
2022-08-19T05:14:58.224Z,16.70
2022-08-19T05:17:29.447Z,17.60
2022-08-19T05:20:16.584Z,16.40
2022-08-19T05:22:46.772Z,17.10
2022-08-19T05:25:19.425Z,16.40
2022-08-19T05:27:47.005Z,16.70
2022-08-19T05:30:14.976Z,17.70
2022-08-19T05:32:41.882Z,16.40
2022-08-19T05:35:09.948Z,16.70
2022-08-19T05:37:37.202Z,17.00
2022-08-19T05:40:06.098Z,16.30
2022-08-19T05:42:33.104Z,16.30
2022-08-19T05:45:00.221Z,16.00
2022-08-19T05:47:27.906Z,15.40
2022-08-19T05:49:55.195Z,16.30
2022-08-19T05:52:26.152Z,16.40
2022-08-19T05:54:56.837Z,16.50
2022-08-19T05:57:25.101Z,16.50
2022-08-19T05:59:58.365Z,17.40
2022-08-19T06:02:31.147Z,17.00
2022-08-19T06:04:58.261Z,15.80
2022-08-19T06:07:25.277Z,16.60
2022-08-19T06:10:00.323Z,15.50
2022-08-19T06:12:33.394Z,16.20
2022-08-19T06:15:07.911Z,17.00
2022-08-19T06:17:35.789Z,16.30
2022-08-19T06:20:06.727Z,16.60
2022-08-19T06:22:39.211Z,16.20
2022-08-19T06:25:07.228Z,16.10
2022-08-19T06:27:34.815Z,15.10
2022-08-19T06:30:04.206Z,16.10
2022-08-19T06:34:58.512Z,15.40
2022-08-19T06:37:25.426Z,16.40
2022-08-19T06:39:52.752Z,17.10
2022-08-19T06:42:21.661Z,16.80
2022-08-19T06:44:53.543Z,15.90
2022-08-19T06:47:23.870Z,15.50
2022-08-19T06:50:05.435Z,15.20
2022-08-19T06:52:36.578Z,14.90
2022-08-19T06:55:06.229Z,15.30
2022-08-19T06:57:34.509Z,16.10
2022-08-19T07:00:01.790Z,15.40
2022-08-19T07:02:29.159Z,15.70
2022-08-19T07:04:59.492Z,16.20
2022-08-19T07:07:27.744Z,15.50
2022-08-19T07:10:00.309Z,16.50
2022-08-19T07:12:33.440Z,15.50
2022-08-19T07:15:09.871Z,14.90
2022-08-19T07:17:39.201Z,14.80
2022-08-19T07:20:09.685Z,14.80
2022-08-19T07:22:38.457Z,15.10
2022-08-19T07:25:08.153Z,14.70
2022-08-19T07:27:35.483Z,14.40
2022-08-19T07:30:05.605Z,14.50
2022-08-19T07:32:32.918Z,14.40
2022-08-19T07:35:01.091Z,14.80
2022-08-19T07:37:32.809Z,13.90
2022-08-19T07:40:02.135Z,14.10
2022-08-19T07:42:39.466Z,13.00
2022-08-19T07:45:08.509Z,13.30
2022-08-19T07:47:48.122Z,13.30
2022-08-19T07:50:20.520Z,14.00
2022-08-19T07:52:50.297Z,13.40
2022-08-19T07:55:42.320Z,13.40
2022-08-19T08:08:08.652Z,14.10
2022-08-19T08:10:28.339Z,13.80
2022-08-19T08:16:23.839Z,13.60
2022-08-19T08:23:13.069Z,13.40
2022-08-19T08:30:11.082Z,13.40
2022-08-19T08:46:46.466Z,15.10
2022-08-19T08:49:34.648Z,14.10
2022-08-19T08:52:07.432Z,13.40
2022-08-19T08:54:49.226Z,14.10
2022-08-19T08:57:33.739Z,14.00
2022-08-19T09:00:16.847Z,13.80
2022-08-19T09:02:45.070Z,14.30
2022-08-19T09:05:22.299Z,13.30
2022-08-19T09:08:12.002Z,13.70
2022-08-19T09:10:55.309Z,12.70
2022-08-19T09:13:26.219Z,12.30
2022-08-19T09:15:58.924Z,12.70
2022-08-19T09:18:25.889Z,12.70
2022-08-19T09:20:57.322Z,12.70
2022-08-19T09:23:26.959Z,12.10
2022-08-19T09:25:54.694Z,12.10
2022-08-19T09:28:27.298Z,12.90
2022-08-19T09:30:54.897Z,13.10
2022-08-19T09:33:23.341Z,12.20
2022-08-19T09:35:53.613Z,12.00
2022-08-19T09:38:22.259Z,12.80
2022-08-19T09:40:50.079Z,12.90
2022-08-19T09:43:33.230Z,11.90
2022-08-19T09:46:06.922Z,11.70
2022-08-19T09:48:33.968Z,11.60
2022-08-19T09:51:12.130Z,11.60
2022-08-19T09:53:39.809Z,12.00
2022-08-19T09:56:07.575Z,11.40
2022-08-19T09:58:37.240Z,12.00
2022-08-19T10:01:06.484Z,12.00
2022-08-19T10:03:35.472Z,11.90
2022-08-19T10:06:05.528Z,12.30
2022-08-19T10:08:49.891Z,12.10
2022-08-19T10:11:28.639Z,11.80
2022-08-19T10:14:08.367Z,12.00
2022-08-19T10:16:39.505Z,11.20
2022-08-19T10:19:06.880Z,11.50
2022-08-19T10:21:34.932Z,11.60
2022-08-19T10:24:05.850Z,11.70
2022-08-19T10:26:38.333Z,11.70
2022-08-19T10:29:06.209Z,12.60
2022-08-19T10:32:02.250Z,12.50
2022-08-19T10:34:27.860Z,11.90
2022-08-19T10:37:00.573Z,12.10
2022-08-19T10:39:41.027Z,12.20
2022-08-19T10:42:11.086Z,12.30
2022-08-19T10:44:38.189Z,12.10
2022-08-19T10:47:05.373Z,12.80
2022-08-19T10:50:03.708Z,12.00
2022-08-19T10:52:39.003Z,12.70
2022-08-19T10:55:26.394Z,12.20
2022-08-19T10:58:02.626Z,12.10
2022-08-19T11:00:31.629Z,11.80
2022-08-19T11:02:58.697Z,12.10
2022-08-19T11:05:25.717Z,11.70
2022-08-19T11:07:53.385Z,11.50
2022-08-19T11:10:21.806Z,11.40
2022-08-19T11:12:53.577Z,11.80
2022-08-19T11:15:21.230Z,11.60
2022-08-19T11:17:48.200Z,11.90
2022-08-19T11:20:15.957Z,12.30
2022-08-19T11:22:43.245Z,11.70
2022-08-19T11:25:12.011Z,12.10
2022-08-19T11:27:43.645Z,12.30
2022-08-19T11:30:13.563Z,12.00
2022-08-19T11:32:45.704Z,11.40
2022-08-19T11:35:16.631Z,11.10
2022-08-19T11:37:43.853Z,11.50
2022-08-19T11:40:11.451Z,11.40
2022-08-19T11:42:57.343Z,11.00
2022-08-19T11:45:25.904Z,11.60
2022-08-19T11:47:54.117Z,11.70
2022-08-19T11:50:23.858Z,11.60
2022-08-19T11:52:51.406Z,10.80
2022-08-19T11:55:19.940Z,12.00
2022-08-19T11:57:47.294Z,11.90
2022-08-19T12:00:14.524Z,11.30
2022-08-19T12:02:41.597Z,12.20
2022-08-19T12:05:12.285Z,11.50
2022-08-19T12:07:42.123Z,12.10
2022-08-19T12:12:42.961Z,12.30
2022-08-19T12:15:11.519Z,11.40
2022-08-19T12:17:38.828Z,11.60
2022-08-19T12:20:09.424Z,11.20
2022-08-19T12:22:41.784Z,11.30
2022-08-19T12:25:11.028Z,11.30
2022-08-19T12:27:40.807Z,11.50
2022-08-19T12:30:11.915Z,11.40
2022-08-19T12:32:40.089Z,11.00
2022-08-19T12:35:09.732Z,11.00
2022-08-19T12:37:37.049Z,10.60
2022-08-19T12:40:05.193Z,10.70
2022-08-19T12:42:37.218Z,11.00
2022-08-19T12:45:09.363Z,11.30
2022-08-19T12:47:42.285Z,11.00
2022-08-19T12:50:14.081Z,10.70
2022-08-19T12:52:42.930Z,10.80
2022-08-19T12:55:12.043Z,10.70
2022-08-19T12:57:39.493Z,10.50
2022-08-19T13:00:12.315Z,10.70
2022-08-19T13:02:47.608Z,11.20
2022-08-19T13:05:24.559Z,10.80
2022-08-19T13:07:57.804Z,10.70
2022-08-19T13:11:31.426Z,11.30
2022-08-19T13:14:55.409Z,10.50
2022-08-19T13:17:23.678Z,11.10
2022-08-19T13:20:13.920Z,10.60
2022-08-19T13:22:41.709Z,10.70
2022-08-19T13:25:16.226Z,11.20
2022-08-19T13:27:48.511Z,10.60
2022-08-19T13:30:45.789Z,11.30
2022-08-19T13:33:59.183Z,11.10
2022-08-19T13:37:43.043Z,10.60
2022-08-19T13:40:36.834Z,10.70
2022-08-19T13:43:17.573Z,10.90
2022-08-19T13:45:58.443Z,11.10
2022-08-19T13:48:27.521Z,10.90
2022-08-19T13:53:22.028Z,10.90
2022-08-19T13:55:50.984Z,10.40
2022-08-19T13:58:18.089Z,11.50
2022-08-19T14:00:46.750Z,11.30
2022-08-19T14:03:14.204Z,10.60
2022-08-19T14:05:41.155Z,10.80
2022-08-19T14:08:08.338Z,11.00
2022-08-19T14:10:35.567Z,10.90
2022-08-19T14:13:03.956Z,11.60
2022-08-19T14:15:32.431Z,11.60
2022-08-19T14:18:00.064Z,11.70
2022-08-19T14:20:29.721Z,11.80
2022-08-19T14:22:56.830Z,11.80
2022-08-19T14:25:27.031Z,11.00
2022-08-19T14:27:54.809Z,11.40
2022-08-19T14:30:29.014Z,11.60
2022-08-19T14:33:01.874Z,11.90
2022-08-19T14:35:34.810Z,11.70
2022-08-19T14:38:06.805Z,11.50
2022-08-19T14:40:35.318Z,12.30
2022-08-19T14:43:04.983Z,11.30
2022-08-19T14:45:35.295Z,12.50
2022-08-19T14:48:08.840Z,11.90
2022-08-19T14:50:47.004Z,12.40
2022-08-19T14:53:14.193Z,12.10
2022-08-19T14:56:37.890Z,10.80
2022-08-19T15:02:42.659Z,11.70
2022-08-19T15:05:10.156Z,12.50
2022-08-19T15:05:17.516Z,11.00
2022-08-19T15:07:38.157Z,12.20
2022-08-19T15:10:13.394Z,11.30
2022-08-19T15:12:51.747Z,11.40
2022-08-19T15:15:29.577Z,11.50
2022-08-19T15:18:03.301Z,11.20
2022-08-19T15:20:31.323Z,11.70
2022-08-19T15:23:01.987Z,12.10
2022-08-19T15:25:29.330Z,12.40
2022-08-19T15:27:56.854Z,11.80
2022-08-19T15:31:18.900Z,11.40
2022-08-19T15:38:29.421Z,10.40
2022-08-19T15:41:22.661Z,10.70
2022-08-19T15:44:12.848Z,10.30
2022-08-19T15:46:43.856Z,10.60
2022-08-19T15:49:13.578Z,10.60
2022-08-19T15:51:45.889Z,10.10
2022-08-19T15:54:28.469Z,10.80
2022-08-19T16:00:28.124Z,10.90
2022-08-19T16:03:25.076Z,11.70
2022-08-19T16:06:24.776Z,50.30
2022-08-19T16:11:56.627Z,34.30
2022-08-19T16:14:25.525Z,19.00
2022-08-19T16:16:58.816Z,20.20
2022-08-19T16:19:27.091Z,17.70
2022-08-19T16:21:56.381Z,16.90
2022-08-19T16:24:26.923Z,16.70
2022-08-19T16:26:55.602Z,16.20
2022-08-19T16:29:39.647Z,15.50
2022-08-19T16:32:19.029Z,15.00
2022-08-19T16:34:48.266Z,16.20
2022-08-19T16:37:24.092Z,16.10
2022-08-19T16:40:26.206Z,16.30
2022-08-19T16:42:58.263Z,14.80
2022-08-19T16:45:25.563Z,14.80
2022-08-19T16:47:52.709Z,15.70
2022-08-19T16:50:45.902Z,19.40
2022-08-19T16:53:10.487Z,17.50
2022-08-19T16:55:38.014Z,13.90
2022-08-19T16:58:07.338Z,11.80
2022-08-19T17:00:54.300Z,11.60
2022-08-19T17:03:50.615Z,11.20
2022-08-19T17:06:58.087Z,11.80
2022-08-19T17:31:59.980Z,12.80
2022-08-19T17:36:17.934Z,13.30
2022-08-19T17:55:39.142Z,13.80
2022-08-19T18:08:53.967Z,13.40
2022-08-19T18:11:24.033Z,13.90
2022-08-19T18:13:58.873Z,12.70
2022-08-19T18:16:28.451Z,13.40
2022-08-19T18:18:57.178Z,14.20
2022-08-19T18:21:31.913Z,14.10
2022-08-19T18:24:09.708Z,13.50
2022-08-19T18:26:47.148Z,14.40
2022-08-19T18:29:25.778Z,13.60
2022-08-19T18:32:23.533Z,13.40
2022-08-19T18:35:33.723Z,13.80
2022-08-19T18:42:57.902Z,13.10
2022-08-19T20:19:53.803Z,14.30
2022-08-19T20:37:52.898Z,13.90
2022-08-19T20:40:44.713Z,12.90
2022-08-19T20:43:14.355Z,13.20
2022-08-19T20:45:42.097Z,13.60
2022-08-19T20:48:13.320Z,13.10
2022-08-19T20:51:22.146Z,13.00
2022-08-19T20:54:48.817Z,13.20
2022-08-19T21:01:02.953Z,13.20
2022-08-19T21:04:30.230Z,13.20
2022-08-19T21:07:03.968Z,12.60
2022-08-19T21:10:54.920Z,12.40
2022-08-19T21:12:41.818Z,12.30
2022-08-19T21:15:27.465Z,12.60
2022-08-19T21:18:20.662Z,13.60
2022-08-19T21:21:26.003Z,12.80
2022-08-19T21:24:15.524Z,13.40
2022-08-19T21:27:05.189Z,14.00
2022-08-19T21:29:47.607Z,12.60
2022-08-19T21:34:38.174Z,12.10
2022-08-19T21:36:48.985Z,12.50
2022-08-19T21:39:42.111Z,12.80
2022-08-19T21:44:39.981Z,13.60
2022-08-19T21:47:13.289Z,12.60
2022-08-19T21:49:41.184Z,12.60
2022-08-19T21:52:13.151Z,12.30
2022-08-19T21:58:28.331Z,14.00
2022-08-19T22:01:26.936Z,14.60
2022-08-19T22:04:18.581Z,14.10
2022-08-19T22:06:58.059Z,14.20
2022-08-19T22:24:38.196Z,16.60
2022-08-19T22:27:39.984Z,16.90
2022-08-19T22:30:45.838Z,17.20
2022-08-19T22:33:18.368Z,16.70
2022-08-19T22:36:24.387Z,16.70
2022-08-19T22:39:09.593Z,17.30
2022-08-19T22:41:48.745Z,18.00
2022-08-19T22:44:18.775Z,18.40
2022-08-19T22:46:49.523Z,18.10
2022-08-19T22:49:16.666Z,18.50
2022-08-19T22:52:04.322Z,18.70
2022-08-19T22:54:32.075Z,18.20
2022-08-19T22:56:59.607Z,18.00
2022-08-19T22:59:26.765Z,17.90
2022-08-19T23:01:56.649Z,18.50
2022-08-19T23:04:23.846Z,19.60
2022-08-19T23:06:52.412Z,18.60
2022-08-19T23:09:19.490Z,18.80
2022-08-19T23:11:57.906Z,18.30
2022-08-19T23:14:27.707Z,18.80
2022-08-19T23:16:58.437Z,19.20
2022-08-19T23:19:26.331Z,18.20
2022-08-19T23:21:53.267Z,18.30
2022-08-19T23:24:20.439Z,17.80
2022-08-19T23:27:06.082Z,17.50
2022-08-19T23:29:52.333Z,17.70
2022-08-19T23:32:26.610Z,18.20
2022-08-19T23:34:59.760Z,17.90
2022-08-19T23:37:27.317Z,17.90
2022-08-19T23:39:54.398Z,17.50
2022-08-19T23:42:23.268Z,19.30
2022-08-19T23:44:54.996Z,18.60
2022-08-19T23:47:23.061Z,18.70
2022-08-19T23:49:50.389Z,18.90
2022-08-19T23:52:29.043Z,18.90
2022-08-19T23:55:07.007Z,18.60
2022-08-19T23:57:42.278Z,18.40
